Time;durP1;ratioP1;P1;durP2;ratioP2;P2;SDS_P1;SDS_P2;PMS_P1;PMS_P2;Temp;Humidity;BMP_temperature;BMP_pressure;BME280_temperature;BME280_humidity;BME280_pressure;Samples;Min_cycle;Max_cycle;Signal;HPM_P1;HPM_P2
2021/10/26 00:01:23;;;;;;;12.82;10.68;;;12.60;99.90;;;;;;5036265;28;20068;-86
2021/10/26 00:03:49;;;;;;;12.88;10.95;;;12.80;99.90;;;;;;5036056;28;20112;-86
2021/10/26 00:06:15;;;;;;;14.07;11.32;;;13.20;99.90;;;;;;5031951;28;20774;-86
2021/10/26 00:08:41;;;;;;;14.18;11.43;;;13.00;99.90;;;;;;5018559;28;20104;-86
2021/10/26 00:11:06;;;;;;;14.25;10.90;;;13.20;99.90;;;;;;5036037;28;20025;-86
2021/10/26 00:13:32;;;;;;;12.85;11.23;;;12.70;99.90;;;;;;5036387;28;20021;-86
2021/10/26 00:15:58;;;;;;;13.88;11.48;;;12.30;99.90;;;;;;5036285;28;20040;-86
2021/10/26 00:18:23;;;;;;;23.70;13.07;;;13.00;99.90;;;;;;5032661;28;20472;-86
2021/10/26 00:20:49;;;;;;;15.40;11.07;;;13.20;99.90;;;;;;5036019;28;20029;-86
2021/10/26 00:23:15;;;;;;;15.98;11.75;;;12.90;99.90;;;;;;5036689;28;20505;-86
2021/10/26 00:25:40;;;;;;;14.00;10.60;;;12.90;99.90;;;;;;5035614;28;20390;-85
2021/10/26 00:28:06;;;;;;;14.15;10.55;;;12.30;99.90;;;;;;5036307;28;20140;-85
2021/10/26 00:30:32;;;;;;;13.50;11.18;;;12.80;99.90;;;;;;5033653;28;20024;-86
2021/10/26 00:32:58;;;;;;;15.25;11.85;;;12.60;99.90;;;;;;5035645;28;20191;-86
2021/10/26 00:35:27;;;;;;;15.68;11.50;;;12.50;99.90;;;;;;5036322;28;20022;-86
2021/10/26 00:37:57;;;;;;;16.88;11.70;;;12.90;99.90;;;;;;5035794;28;20518;-86
2021/10/26 00:40:23;;;;;;;14.82;11.70;;;12.60;99.90;;;;;;5035595;28;20060;-85
2021/10/26 00:42:51;;;;;;;14.90;11.27;;;12.60;99.90;;;;;;5036619;28;20125;-86
2021/10/26 00:45:17;;;;;;;13.30;10.90;;;13.20;99.90;;;;;;5031771;28;20037;-85
2021/10/26 00:47:42;;;;;;;15.13;11.35;;;12.70;99.90;;;;;;5036704;28;20036;-85
2021/10/26 00:50:09;;;;;;;13.52;11.90;;;12.60;99.90;;;;;;5035713;28;20037;-86
2021/10/26 00:52:36;;;;;;;17.25;11.52;;;13.10;99.90;;;;;;5035420;28;20052;-86
2021/10/26 00:55:02;;;;;;;18.15;11.65;;;13.10;99.90;;;;;;5035198;28;20043;-86
2021/10/26 00:57:28;;;;;;;13.25;11.57;;;12.70;99.90;;;;;;5032943;28;20036;-85
2021/10/26 00:59:54;;;;;;;16.90;12.30;;;12.80;99.90;;;;;;5034404;28;20029;-85
2021/10/26 01:02:20;;;;;;;15.88;12.30;;;12.50;99.90;;;;;;5035652;28;20040;-86
2021/10/26 01:04:46;;;;;;;17.20;12.10;;;12.50;99.90;;;;;;5036107;28;20390;-86
2021/10/26 01:07:12;;;;;;;17.77;12.43;;;12.50;99.90;;;;;;5035457;28;20111;-86
2021/10/26 01:09:38;;;;;;;16.52;11.93;;;12.70;99.90;;;;;;5033292;28;20494;-85
2021/10/26 01:12:05;;;;;;;14.02;10.90;;;12.60;99.90;;;;;;5032956;28;20033;-86
2021/10/26 01:14:31;;;;;;;13.43;10.65;;;12.70;99.90;;;;;;5035505;28;20497;-86
2021/10/26 01:17:08;;;;;;;15.35;11.25;;;13.10;99.90;;;;;;5018757;28;20033;-86
2021/10/26 01:19:57;;;;;;;12.90;10.95;;;12.60;99.90;;;;;;5019717;28;20090;-86
2021/10/26 01:22:27;;;;;;;12.40;10.77;;;13.10;99.90;;;;;;5039283;28;20034;-86
2021/10/26 01:24:54;;;;;;;13.50;10.57;;;13.10;99.90;;;;;;5039483;28;20100;-86
2021/10/26 01:27:20;;;;;;;13.18;10.65;;;12.60;99.90;;;;;;5034913;28;20569;-86
2021/10/26 01:29:46;;;;;;;13.48;10.73;;;12.70;99.90;;;;;;5040641;28;20405;-85
2021/10/26 01:32:15;;;;;;;13.20;11.15;;;13.00;99.90;;;;;;5039326;28;20026;-85
2021/10/26 01:34:41;;;;;;;16.50;11.63;;;12.70;99.90;;;;;;5039522;28;20045;-86
2021/10/26 01:37:08;;;;;;;15.18;10.95;;;12.80;99.90;;;;;;5038831;28;20481;-86
2021/10/26 01:39:35;;;;;;;17.77;11.82;;;13.30;99.90;;;;;;5037461;28;20397;-86
2021/10/26 01:42:01;;;;;;;16.00;11.63;;;12.90;99.90;;;;;;5036909;28;20033;-86
2021/10/26 01:44:27;;;;;;;15.57;11.60;;;13.00;99.90;;;;;;5039203;28;20025;-86
2021/10/26 01:46:54;;;;;;;14.52;11.57;;;13.20;99.90;;;;;;5039828;28;20504;-86
2021/10/26 01:49:21;;;;;;;15.05;11.80;;;12.90;99.90;;;;;;5039066;28;20028;-85
2021/10/26 01:51:47;;;;;;;16.98;11.85;;;13.30;99.90;;;;;;5037620;28;21091;-83
2021/10/26 01:54:13;;;;;;;13.25;11.30;;;12.90;99.90;;;;;;5035018;28;20494;-83
2021/10/26 01:56:40;;;;;;;13.90;11.77;;;12.90;99.90;;;;;;5038997;28;20438;-83
2021/10/26 01:59:06;;;;;;;14.95;12.13;;;13.00;99.90;;;;;;5039833;28;20352;-83
2021/10/26 02:01:32;;;;;;;15.00;11.40;;;12.30;99.90;;;;;;5039588;28;20037;-83
2021/10/26 02:03:57;;;;;;;14.75;11.77;;;12.30;99.90;;;;;;5038674;28;20087;-83
2021/10/26 02:06:23;;;;;;;14.40;10.90;;;12.60;99.90;;;;;;5034378;28;20596;-83
2021/10/26 02:08:48;;;;;;;14.65;10.77;;;13.20;99.90;;;;;;5039446;28;20036;-84
2021/10/26 02:11:14;;;;;;;13.70;11.30;;;12.80;99.90;;;;;;5039089;28;20112;-84
2021/10/26 02:13:40;;;;;;;14.48;11.00;;;12.80;99.90;;;;;;5038258;28;20485;-83
2021/10/26 02:16:06;;;;;;;15.95;11.52;;;12.80;99.90;;;;;;5038637;28;20032;-83
2021/10/26 02:18:32;;;;;;;14.40;11.88;;;13.20;99.90;;;;;;5036172;28;20034;-86
2021/10/26 02:20:59;;;;;;;16.05;12.48;;;12.80;99.90;;;;;;5036803;28;20474;-85
2021/10/26 02:23:25;;;;;;;14.55;11.80;;;12.70;99.90;;;;;;5039293;28;20038;-85
2021/10/26 02:25:50;;;;;;;15.90;11.38;;;12.70;99.90;;;;;;5037976;28;20072;-86
2021/10/26 02:28:17;;;;;;;14.48;11.95;;;12.70;99.90;;;;;;5037250;28;20021;-86
2021/10/26 02:30:44;;;;;;;16.83;11.52;;;12.90;99.90;;;;;;5050133;28;20021;-86
2021/10/26 02:33:10;;;;;;;15.65;12.00;;;13.10;99.90;;;;;;5035489;28;20138;-86
2021/10/26 02:35:36;;;;;;;14.93;11.82;;;12.70;99.90;;;;;;5038966;28;20064;-86
2021/10/26 02:38:03;;;;;;;14.65;12.05;;;12.80;99.90;;;;;;5038675;28;20063;-86
2021/10/26 02:40:29;;;;;;;14.50;11.60;;;12.90;99.90;;;;;;5037505;28;20029;-85
2021/10/26 02:42:55;;;;;;;16.05;12.07;;;12.90;99.90;;;;;;5037757;28;20093;-86
2021/10/26 02:45:27;;;;;;;14.50;11.98;;;12.90;99.90;;;;;;5033846;28;20033;-86
2021/10/26 02:47:53;;;;;;;14.68;12.15;;;12.90;99.90;;;;;;5037809;28;20032;-86
2021/10/26 02:50:19;;;;;;;13.70;12.20;;;13.30;99.90;;;;;;5038737;28;20030;-86
2021/10/26 02:52:45;;;;;;;16.52;12.02;;;12.80;99.90;;;;;;5037198;28;20022;-86
2021/10/26 02:55:11;;;;;;;14.77;12.18;;;12.80;99.90;;;;;;5037777;28;20031;-86
2021/10/26 02:57:37;;;;;;;16.42;11.70;;;13.40;99.90;;;;;;5035537;28;20500;-86
2021/10/26 03:00:06;;;;;;;18.65;12.13;;;13.20;99.90;;;;;;5035665;28;20442;-86
2021/10/26 03:02:31;;;;;;;14.23;11.57;;;12.80;99.90;;;;;;5036024;28;20049;-86
2021/10/26 03:04:57;;;;;;;15.27;12.05;;;13.10;99.90;;;;;;5036970;28;20041;-85
2021/10/26 03:07:22;;;;;;;16.88;11.52;;;12.80;99.90;;;;;;5037871;28;20049;-86
2021/10/26 03:09:48;;;;;;;13.82;11.45;;;12.80;99.90;;;;;;5037028;28;20025;-86
2021/10/26 03:12:14;;;;;;;17.88;12.10;;;13.40;99.90;;;;;;5034084;28;20036;-86
2021/10/26 03:14:39;;;;;;;16.70;12.90;;;12.90;99.90;;;;;;5038995;28;20087;-86
2021/10/26 03:17:05;;;;;;;17.25;12.82;;;12.80;99.90;;;;;;5037305;28;20654;-86
2021/10/26 03:19:31;;;;;;;16.77;13.02;;;12.80;99.90;;;;;;5036459;28;20033;-86
2021/10/26 03:21:56;;;;;;;15.85;12.55;;;13.10;99.90;;;;;;5037081;28;20049;-86
2021/10/26 03:24:22;;;;;;;19.83;14.15;;;13.20;99.90;;;;;;5032970;28;20037;-85
2021/10/26 03:26:48;;;;;;;19.55;15.23;;;12.70;99.90;;;;;;5037262;28;20029;-86
2021/10/26 03:29:14;;;;;;;18.63;14.85;;;13.10;99.90;;;;;;5037578;28;20474;-85
2021/10/26 03:31:39;;;;;;;18.55;13.65;;;12.60;99.90;;;;;;5036631;28;20022;-86
2021/10/26 03:34:05;;;;;;;17.23;13.90;;;12.60;99.90;;;;;;5037439;28;20036;-86
2021/10/26 03:36:32;;;;;;;20.73;13.90;;;12.80;99.90;;;;;;5034336;28;20028;-85
2021/10/26 03:38:58;;;;;;;16.95;13.27;;;12.50;99.90;;;;;;5035438;28;20033;-86
2021/10/26 03:41:23;;;;;;;17.77;13.98;;;12.70;99.90;;;;;;5037087;28;20041;-85
2021/10/26 03:43:49;;;;;;;17.52;13.88;;;12.90;99.90;;;;;;5036074;28;20025;-86
2021/10/26 03:46:15;;;;;;;17.10;13.30;;;12.90;99.90;;;;;;5036715;28;20049;-86
2021/10/26 03:48:41;;;;;;;17.00;13.45;;;12.50;99.90;;;;;;5034882;28;20021;-86
2021/10/26 03:51:06;;;;;;;16.33;12.98;;;12.80;99.90;;;;;;5033890;28;20048;-86
2021/10/26 03:53:33;;;;;;;16.42;13.35;;;12.60;99.90;;;;;;5037718;28;20108;-86
2021/10/26 03:55:59;;;;;;;17.40;12.93;;;12.40;99.90;;;;;;5036510;28;20100;-85
2021/10/26 03:58:24;;;;;;;18.50;13.45;;;12.80;99.90;;;;;;5037146;28;20025;-86
2021/10/26 04:00:50;;;;;;;16.23;12.68;;;12.70;99.90;;;;;;5036467;28;20397;-86
2021/10/26 04:03:16;;;;;;;16.88;13.38;;;12.10;99.90;;;;;;5031831;28;20120;-86
2021/10/26 04:10:50;;;;;;;17.05;13.85;;;12.30;99.90;;;;;;5036454;28;20147;-86
2021/10/26 04:13:16;;;;;;;19.98;14.43;;;12.10;99.90;;;;;;5036285;28;20033;-85
2021/10/26 04:15:42;;;;;;;16.85;13.80;;;12.10;99.90;;;;;;5034595;28;20028;-86
2021/10/26 04:18:08;;;;;;;17.02;14.23;;;12.10;99.90;;;;;;5033064;28;20037;-86
2021/10/26 04:20:34;;;;;;;18.88;13.73;;;12.10;99.90;;;;;;5036715;28;20026;-86
2021/10/26 04:23:00;;;;;;;19.95;14.82;;;12.20;99.90;;;;;;5036177;28;20041;-86
2021/10/26 04:25:25;;;;;;;17.85;13.70;;;12.50;99.90;;;;;;5036420;28;20551;-86
2021/10/26 04:27:51;;;;;;;20.73;15.98;;;12.20;99.90;;;;;;5036072;28;20029;-86
2021/10/26 04:30:17;;;;;;;18.35;14.00;;;12.20;99.90;;;;;;5031535;28;20033;-86
2021/10/26 04:32:42;;;;;;;19.02;13.85;;;12.30;99.90;;;;;;5036833;28;20516;-86
2021/10/26 04:35:09;;;;;;;20.38;14.68;;;12.30;99.90;;;;;;5035917;28;20090;-86
2021/10/26 04:37:35;;;;;;;16.73;13.60;;;12.20;99.90;;;;;;5036552;28;20033;-86
2021/10/26 04:40:03;;;;;;;21.13;14.88;;;11.70;99.90;;;;;;5036166;28;20029;-87
2021/10/26 04:42:28;;;;;;;17.23;13.25;;;11.90;99.90;;;;;;5032476;28;20044;-86
2021/10/26 04:44:54;;;;;;;20.58;14.05;;;11.80;99.90;;;;;;5034482;28;20026;-87
2021/10/26 04:47:22;;;;;;;18.80;13.90;;;12.10;99.90;;;;;;5035446;28;20037;-86
2021/10/26 04:49:50;;;;;;;18.65;13.65;;;11.80;99.90;;;;;;5035187;28;20108;-86
2021/10/26 04:52:16;;;;;;;17.77;13.75;;;11.80;99.90;;;;;;5035704;28;20021;-86
2021/10/26 04:54:41;;;;;;;19.05;14.52;;;12.30;99.90;;;;;;5033171;28;20029;-85
2021/10/26 04:57:07;;;;;;;19.05;13.65;;;11.90;99.90;;;;;;5032635;28;20030;-86
2021/10/26 04:59:36;;;;;;;17.90;13.15;;;11.90;99.90;;;;;;5035950;28;20490;-87
2021/10/26 05:02:01;;;;;;;17.45;13.18;;;11.80;99.90;;;;;;5035101;28;20029;-86
2021/10/26 05:04:27;;;;;;;17.85;13.38;;;11.80;99.90;;;;;;5034743;28;20035;-86
2021/10/26 05:06:54;;;;;;;19.23;14.02;;;12.20;99.90;;;;;;5034877;28;20055;-86
2021/10/26 05:09:19;;;;;;;18.70;14.07;;;12.30;99.90;;;;;;5015861;28;20029;-87
2021/10/26 05:11:45;;;;;;;19.85;13.38;;;12.00;99.90;;;;;;5036011;28;20124;-88
2021/10/26 05:14:11;;;;;;;18.65;14.35;;;11.50;99.90;;;;;;5035961;28;20056;-87
2021/10/26 05:16:37;;;;;;;18.55;13.68;;;11.40;99.90;;;;;;5035015;28;20481;-88
2021/10/26 05:19:04;;;;;;;19.25;13.63;;;11.40;99.90;;;;;;5019026;28;20033;-91
2021/10/26 05:21:30;;;;;;;18.63;13.18;;;11.90;99.90;;;;;;5032845;28;20040;-89
2021/10/26 05:23:56;;;;;;;19.58;13.82;;;11.20;99.90;;;;;;5034368;28;20033;-88
2021/10/26 05:26:22;;;;;;;15.20;13.48;;;11.30;99.90;;;;;;5020104;28;20435;-87
2021/10/26 05:28:49;;;;;;;17.98;13.73;;;11.50;99.90;;;;;;5035321;28;20033;-93
2021/10/26 05:31:15;;;;;;;17.92;13.25;;;11.20;99.90;;;;;;5018891;28;20057;-88
2021/10/26 05:33:42;;;;;;;17.95;13.73;;;11.70;99.90;;;;;;5017543;28;20035;-89
2021/10/26 05:36:08;;;;;;;17.88;13.70;;;11.70;99.90;;;;;;5032166;28;20033;-87
2021/10/26 05:38:35;;;;;;;15.77;13.23;;;11.20;99.90;;;;;;5036577;28;20038;-87
2021/10/26 05:41:02;;;;;;;19.52;13.35;;;11.30;99.90;;;;;;5035610;28;20032;-87
2021/10/26 05:43:27;;;;;;;16.67;13.25;;;11.00;99.90;;;;;;5035011;28;20200;-87
2021/10/26 05:45:53;;;;;;;16.35;13.15;;;11.10;99.90;;;;;;5035784;28;20131;-88
2021/10/26 05:48:19;;;;;;;16.80;13.32;;;11.40;99.90;;;;;;5031223;28;20025;-87
2021/10/26 05:50:46;;;;;;;20.50;13.77;;;11.10;99.90;;;;;;5035667;28;20026;-87
2021/10/26 05:53:12;;;;;;;18.92;13.80;;;11.00;99.90;;;;;;5034970;28;20025;-86
2021/10/26 05:55:42;;;;;;;18.08;14.20;;;11.30;99.90;;;;;;5035113;28;20123;-87
2021/10/26 05:58:10;;;;;;;20.05;14.50;;;11.00;99.90;;;;;;5034651;28;20044;-87
2021/10/26 06:00:36;;;;;;;20.67;15.10;;;11.00;99.90;;;;;;5016338;28;20103;-86
2021/10/26 06:03:02;;;;;;;17.98;14.65;;;10.90;99.90;;;;;;5033012;28;20467;-87
2021/10/26 06:05:27;;;;;;;18.05;13.95;;;11.20;99.90;;;;;;5035243;28;20042;-87
2021/10/26 06:07:53;;;;;;;19.35;14.77;;;11.00;99.90;;;;;;5038587;28;20440;-86
2021/10/26 06:10:19;;;;;;;21.55;15.50;;;11.40;99.90;;;;;;5038743;28;20026;-87
2021/10/26 06:12:53;;;;;;;18.92;14.95;;;10.90;99.90;;;;;;5036983;28;20074;-87
2021/10/26 06:15:19;;;;;;;19.98;15.68;;;10.90;99.90;;;;;;5018146;28;20026;-87
2021/10/26 06:17:44;;;;;;;20.85;15.57;;;11.30;99.90;;;;;;5038577;28;20107;-87
2021/10/26 06:20:12;;;;;;;25.80;16.85;;;10.80;99.90;;;;;;5038403;28;20029;-87
2021/10/26 06:22:38;;;;;;;21.55;15.32;;;11.30;99.90;;;;;;5038520;28;20039;-87
2021/10/26 06:25:05;;;;;;;20.73;16.25;;;10.80;99.90;;;;;;5038087;28;20029;-87
2021/10/26 06:27:31;;;;;;;20.42;16.13;;;10.80;99.90;;;;;;5034487;28;20044;-87
2021/10/26 06:29:59;;;;;;;21.73;16.33;;;10.80;99.90;;;;;;5036890;28;20018;-87
2021/10/26 06:32:25;;;;;;;22.27;15.85;;;11.10;99.90;;;;;;5037295;28;20484;-87
2021/10/26 06:34:51;;;;;;;20.45;15.95;;;11.30;99.90;;;;;;5038493;28;20041;-86
2021/10/26 06:37:17;;;;;;;26.05;19.33;;;10.80;99.90;;;;;;5037835;28;20489;-88
2021/10/26 06:39:42;;;;;;;19.90;15.52;;;10.80;99.90;;;;;;5036213;28;20059;-88
2021/10/26 06:42:08;;;;;;;19.75;15.82;;;11.10;99.90;;;;;;5034388;28;20473;-86
2021/10/26 06:44:34;;;;;;;21.15;15.73;;;10.90;99.90;;;;;;5038627;28;20025;-86
2021/10/26 06:46:59;;;;;;;20.60;15.40;;;11.50;99.90;;;;;;5037417;28;20108;-86
2021/10/26 06:49:26;;;;;;;20.83;16.52;;;11.10;99.90;;;;;;5037021;28;20017;-87
2021/10/26 06:51:52;;;;;;;22.17;16.25;;;11.30;99.90;;;;;;5037352;28;20546;-91
2021/10/26 06:54:17;;;;;;;22.45;16.63;;;11.50;99.90;;;;;;5049794;28;20108;-92
2021/10/26 06:56:43;;;;;;;20.73;15.30;;;11.70;99.90;;;;;;5020413;28;20021;-90
2021/10/26 06:59:09;;;;;;;25.15;16.80;;;11.80;99.90;;;;;;5041215;28;20511;-94
2021/10/26 07:01:34;;;;;;;27.08;16.67;;;12.00;99.90;;;;;;5035874;28;20516;-94
2021/10/26 07:04:00;;;;;;;24.35;16.60;;;11.70;99.90;;;;;;5021704;28;20041;-87
2021/10/26 07:06:26;;;;;;;20.75;16.20;;;12.00;99.90;;;;;;5034021;28;20076;-83
2021/10/26 07:08:52;;;;;;;23.77;16.67;;;12.00;99.90;;;;;;5036962;28;20481;-85
2021/10/26 07:11:18;;;;;;;22.63;17.10;;;12.40;99.90;;;;;;5037401;28;20029;-83
2021/10/26 07:13:43;;;;;;;22.52;16.05;;;12.20;99.90;;;;;;5037351;28;20049;-84
2021/10/26 07:16:09;;;;;;;23.42;16.58;;;12.40;99.90;;;;;;5037047;28;20021;-85
2021/10/26 07:18:35;;;;;;;22.70;15.57;;;12.90;99.90;;;;;;5033692;28;20445;-86
2021/10/26 07:21:01;;;;;;;22.77;16.27;;;12.60;99.90;;;;;;5035104;28;20045;-86
2021/10/26 07:23:27;;;;;;;23.30;16.33;;;12.40;99.90;;;;;;5037158;28;20077;-91
2021/10/26 07:25:54;;;;;;;22.25;16.13;;;12.60;99.90;;;;;;5020188;28;20025;-83
2021/10/26 07:28:22;;;;;;;20.23;15.45;;;12.80;99.90;;;;;;5036626;28;20116;-82
2021/10/26 07:30:48;;;;;;;22.05;15.95;;;13.20;99.90;;;;;;5036146;28;20021;-82
2021/10/26 07:33:25;;;;;;;20.65;15.07;;;13.10;99.90;;;;;;5033111;28;20044;-83
2021/10/26 07:35:53;;;;;;;19.77;14.98;;;13.10;99.90;;;;;;5045169;28;20029;-83
2021/10/26 07:38:34;;;;;;;25.30;15.65;;;13.60;99.90;;;;;;5037134;28;20068;-82
2021/10/26 07:41:01;;;;;;;21.42;15.13;;;13.70;99.90;;;;;;5036079;28;20370;-83
2021/10/26 07:43:27;;;;;;;22.13;16.25;;;13.90;99.90;;;;;;5036533;28;20112;-84
2021/10/26 07:45:52;;;;;;;21.08;15.35;;;14.40;99.90;;;;;;5036266;28;20555;-84
2021/10/26 07:48:18;;;;;;;20.23;15.02;;;14.20;99.90;;;;;;5032092;28;20021;-85
2021/10/26 07:50:45;;;;;;;21.40;15.18;;;16.60;99.90;;;;;;5037659;28;20021;-88
2021/10/26 07:53:11;;;;;;;20.23;14.50;;;18.20;99.90;;;;;;5018757;28;20076;-83
2021/10/26 07:55:37;;;;;;;22.60;14.45;;;19.90;99.90;;;;;;5035950;28;20398;-84
2021/10/26 07:58:02;;;;;;;19.38;14.95;;;20.80;99.90;;;;;;5036513;28;20485;-83
2021/10/26 08:00:28;;;;;;;20.27;14.25;;;22.80;99.90;;;;;;5032703;28;20033;-84
2021/10/26 08:02:53;;;;;;;19.45;13.70;;;23.90;99.90;;;;;;5034835;28;20367;-88
2021/10/26 08:05:20;;;;;;;19.05;14.00;;;25.40;99.90;;;;;;5019265;28;20055;-83
2021/10/26 08:07:45;;;;;;;17.90;13.50;;;26.50;99.90;;;;;;5035848;28;20132;-82
2021/10/26 08:10:11;;;;;;;17.92;13.90;;;26.60;99.90;;;;;;5035672;28;20058;-83
2021/10/26 08:12:37;;;;;;;20.00;14.75;;;27.90;99.90;;;;;;5033595;28;20029;-83
2021/10/26 08:15:03;;;;;;;18.50;15.07;;;28.10;99.90;;;;;;5033498;28;20033;-84
2021/10/26 08:17:29;;;;;;;17.33;14.63;;;28.60;99.90;;;;;;5036601;28;20083;-85
2021/10/26 08:19:54;;;;;;;18.92;14.98;;;29.30;99.90;;;;;;5036409;28;20021;-84
2021/10/26 08:22:22;;;;;;;18.35;15.05;;;29.60;99.90;;;;;;5035404;28;20044;-84
2021/10/26 08:24:51;;;;;;;18.70;15.77;;;29.70;99.90;;;;;;5034846;28;20029;-84
2021/10/26 08:27:19;;;;;;;19.05;14.32;;;30.30;99.90;;;;;;5031902;28;20021;-84
2021/10/26 08:30:07;;;;;;;20.27;14.73;;;30.70;99.90;;;;;;5035966;28;20038;-84
2021/10/26 08:32:51;;;;;;;19.05;14.77;;;30.30;99.90;;;;;;5034376;28;20034;-84
2021/10/26 08:35:28;;;;;;;15.75;13.70;;;30.30;99.90;;;;;;5036424;28;20037;-84
2021/10/26 08:37:59;;;;;;;18.92;13.70;;;28.70;99.90;;;;;;5035477;28;20029;-84
2021/10/26 08:40:26;;;;;;;16.75;13.43;;;28.40;99.90;;;;;;5035510;28;20427;-84
2021/10/26 08:42:53;;;;;;;18.25;13.48;;;26.40;99.90;;;;;;5035022;28;20025;-84
2021/10/26 08:45:21;;;;;;;16.73;13.02;;;24.70;99.90;;;;;;5015439;28;20108;-84
2021/10/26 08:47:47;;;;;;;18.75;12.50;;;24.50;99.90;;;;;;5036456;28;20062;-83
2021/10/26 08:50:14;;;;;;;14.18;12.68;;;27.40;99.90;;;;;;5035646;28;20021;-84
2021/10/26 08:52:40;;;;;;;14.95;13.18;;;29.10;99.90;;;;;;5034558;28;20041;-84
2021/10/26 08:55:09;;;;;;;16.05;12.45;;;27.90;99.90;;;;;;5035279;28;20028;-84
2021/10/26 08:57:35;;;;;;;15.05;12.93;;;25.60;99.90;;;;;;5032802;28;20033;-84
2021/10/26 09:00:06;;;;;;;14.60;12.60;;;24.80;99.90;;;;;;5034360;28;20028;-84
2021/10/26 09:02:40;;;;;;;13.85;12.18;;;25.40;99.90;;;;;;5033684;28;20505;-84
2021/10/26 09:05:16;;;;;;;13.20;11.20;;;25.00;99.90;;;;;;5036799;28;20109;-83
2021/10/26 09:07:58;;;;;;;15.75;11.45;;;27.30;99.90;;;;;;5036357;28;20052;-84
2021/10/26 09:10:23;;;;;;;14.73;11.35;;;25.90;99.90;;;;;;5036336;28;20115;-84
2021/10/26 09:18:32;;;;;;;12.82;11.45;;;25.40;99.90;;;;;;5019367;28;20028;-84
2021/10/26 09:20:58;;;;;;;11.55;10.35;;;24.00;99.90;;;;;;5033467;28;20037;-82
2021/10/26 09:23:27;;;;;;;11.50;10.38;;;23.90;99.90;;;;;;5036337;28;20063;-84
2021/10/26 09:26:00;;;;;;;14.57;11.38;;;23.30;99.90;;;;;;5036678;28;20470;-84
2021/10/26 09:28:27;;;;;;;12.20;10.77;;;22.40;99.90;;;;;;5036320;28;20117;-84
2021/10/26 09:31:04;;;;;;;12.02;9.90;;;23.10;99.90;;;;;;5036211;28;20521;-84
2021/10/26 09:33:36;;;;;;;12.27;10.98;;;24.10;99.90;;;;;;5019034;28;20045;-83
2021/10/26 09:36:41;;;;;;;11.60;10.40;;;26.00;99.90;;;;;;5033912;28;20044;-84
2021/10/26 09:39:10;;;;;;;10.52;9.32;;;29.80;99.90;;;;;;4950477;28;20031;-84
2021/10/26 09:41:52;;;;;;;13.45;10.38;;;29.00;99.90;;;;;;4952850;28;20039;-83
2021/10/26 09:44:21;;;;;;;12.38;9.45;;;29.40;99.90;;;;;;4957220;28;20043;-84
2021/10/26 09:46:57;;;;;;;13.45;9.13;;;29.10;99.90;;;;;;4955408;28;20046;-84
2021/10/26 09:49:29;;;;;;;11.98;8.70;;;28.20;99.90;;;;;;4954647;28;20122;-84
2021/10/26 09:52:16;;;;;;;8.82;7.93;;;32.90;99.90;;;;;;4955337;28;20067;-84
2021/10/26 09:54:44;;;;;;;10.02;7.25;;;30.00;99.90;;;;;;4955197;28;20122;-84
2021/10/26 09:57:13;;;;;;;8.60;6.97;;;28.20;99.90;;;;;;4954965;28;20484;-84
2021/10/26 09:59:49;;;;;;;7.18;5.13;;;28.90;99.90;;;;;;4954466;29;20105;-84
2021/10/26 10:02:25;;;;;;;7.13;6.20;;;26.20;99.90;;;;;;4954820;28;20048;-84
2021/10/26 10:04:56;;;;;;;5.88;4.47;;;26.20;99.90;;;;;;4955061;28;20047;-84
2021/10/26 10:07:36;;;;;;;6.85;4.13;;;25.20;99.90;;;;;;4954677;28;20170;-83
2021/10/26 10:10:07;;;;;;;3.80;3.00;;;23.60;99.90;;;;;;5003181;28;20586;-83
2021/10/26 10:12:33;;;;;;;5.05;3.15;;;23.20;99.90;;;;;;5036704;28;20014;-85
2021/10/26 10:14:59;;;;;;;6.43;3.45;;;23.30;99.90;;;;;;5037374;28;20033;-81
2021/10/26 10:17:28;;;;;;;5.55;3.50;;;22.60;99.90;;;;;;5039485;28;20022;-83
2021/10/26 10:19:55;;;;;;;6.80;3.72;;;21.60;99.90;;;;;;5039251;28;20049;-82
2021/10/26 10:22:26;;;;;;;6.50;3.72;;;21.00;99.90;;;;;;5039185;28;20053;-88
2021/10/26 10:25:04;;;;;;;7.20;4.00;;;20.60;99.90;;;;;;5036614;28;20032;-85
2021/10/26 10:27:31;;;;;;;5.70;3.47;;;20.20;99.90;;;;;;5026361;28;20561;-87
2021/10/26 10:29:58;;;;;;;6.78;4.45;;;20.70;99.90;;;;;;5037251;28;20029;-84
2021/10/26 10:32:25;;;;;;;6.85;3.78;;;27.70;99.90;;;;;;5039248;28;20513;-85
2021/10/26 10:34:53;;;;;;;5.47;2.97;;;33.50;99.90;;;;;;5038826;28;20075;-86
2021/10/26 10:37:28;;;;;;;3.47;2.95;;;33.00;99.90;;;;;;5038865;28;20029;-87
2021/10/26 10:39:59;;;;;;;7.85;4.05;;;32.70;99.90;;;;;;5038738;28;20045;-86
2021/10/26 10:42:29;;;;;;;7.13;3.88;;;32.20;99.90;;;;;;5020938;28;20037;-85
2021/10/26 10:44:58;;;;;;;5.70;3.40;;;29.00;99.90;;;;;;5037332;28;20472;-89
2021/10/26 10:47:37;;;;;;;8.45;4.90;;;31.70;99.90;;;;;;5021522;28;20026;-87
2021/10/26 10:50:25;;;;;;;6.32;3.60;;;28.00;99.90;;;;;;5039427;28;20029;-85
2021/10/26 10:53:12;;;;;;;5.57;4.10;;;30.00;99.90;;;;;;5036549;28;20128;-84
2021/10/26 10:55:41;;;;;;;5.90;3.67;;;33.70;99.90;;;;;;5038709;28;20013;-81
2021/10/26 10:58:30;;;;;;;11.25;6.22;;;34.90;99.90;;;;;;5038839;28;20033;-83
2021/10/26 11:01:30;;;;;;;6.43;4.32;;;33.80;99.90;;;;;;5038712;28;20028;-84
2021/10/26 11:03:57;;;;;;;5.70;3.80;;;28.10;99.90;;;;;;5038760;28;20051;-88
2021/10/26 11:06:41;;;;;;;5.05;3.47;;;26.90;99.90;;;;;;5034427;28;20040;-84
2021/10/26 11:09:28;;;;;;;5.15;3.35;;;24.90;99.90;;;;;;5036237;28;20037;-89
2021/10/26 11:12:07;;;;;;;10.80;6.38;;;23.30;99.90;;;;;;5046159;28;20107;-85
2021/10/26 11:15:06;;;;;;;4.00;3.13;;;23.30;99.90;;;;;;5037545;28;20029;-85
2021/10/26 11:17:35;;;;;;;5.63;3.17;;;22.70;99.90;;;;;;5019660;28;20124;-84
2021/10/26 11:20:09;;;;;;;4.70;3.58;;;27.50;99.90;;;;;;5038205;28;20065;-85
2021/10/26 11:22:58;;;;;;;8.70;4.90;;;24.80;99.90;;;;;;5038510;28;20563;-84
2021/10/26 11:25:36;;;;;;;6.25;3.63;;;28.50;99.90;;;;;;5037964;28;20512;-85
2021/10/26 11:28:27;;;;;;;6.07;3.75;;;29.30;99.90;;;;;;5038336;28;20420;-85
2021/10/26 11:30:59;;;;;;;6.90;3.30;;;29.10;99.90;;;;;;5029711;28;20063;-85
2021/10/26 11:33:25;;;;;;;5.55;3.97;;;29.60;99.90;;;;;;5018171;28;20460;-85
2021/10/26 11:35:58;;;;;;;4.53;2.88;;;33.00;99.90;;;;;;5037160;28;20060;-85
2021/10/26 11:38:27;;;;;;;3.17;2.72;;;34.10;99.90;;;;;;5038218;28;20462;-85
2021/10/26 11:41:01;;;;;;;7.18;3.40;;;33.30;99.90;;;;;;5037799;28;20482;-85
2021/10/26 11:43:42;;;;;;;8.23;3.60;;;33.60;99.90;;;;;;5037798;28;20033;-85
2021/10/26 11:46:25;;;;;;;6.72;3.42;;;35.60;99.90;;;;;;5037731;28;20025;-85
2021/10/26 11:48:51;;;;;;;2.83;2.05;;;32.70;99.90;;;;;;5037305;28;20021;-85
2021/10/26 11:51:34;;;;;;;4.20;1.90;;;28.70;99.90;;;;;;5033371;28;20033;-85
2021/10/26 11:54:02;;;;;;;4.25;2.30;;;26.10;99.90;;;;;;5046129;28;20048;-85
2021/10/26 11:56:29;;;;;;;3.60;2.45;;;25.20;99.90;;;;;;5037694;28;20025;-85
2021/10/26 11:59:21;;;;;;;4.80;2.20;;;23.70;99.90;;;;;;5037472;28;20033;-85
2021/10/26 12:01:51;;;;;;;3.38;2.38;;;23.30;99.90;;;;;;5037074;28;20099;-85
2021/10/26 12:04:21;;;;;;;6.25;2.50;;;25.30;99.90;;;;;;5037040;28;20028;-85
2021/10/26 12:06:49;;;;;;;4.03;2.40;;;29.70;99.90;;;;;;5036295;28;20033;-84
2021/10/26 12:09:16;;;;;;;4.43;2.55;;;28.00;99.90;;;;;;5033448;28;20036;-84
2021/10/26 12:11:47;;;;;;;3.60;2.00;;;25.10;99.90;;;;;;5036984;28;20029;-86
2021/10/26 12:14:17;;;;;;;3.55;1.33;;;23.40;99.90;;;;;;5037097;28;20048;-86
2021/10/26 12:17:13;;;;;;;3.25;1.95;;;25.10;99.90;;;;;;5036776;28;20029;-86
2021/10/26 12:19:47;;;;;;;5.22;2.40;;;29.50;99.90;;;;;;5036822;28;20026;-86
2021/10/26 12:22:15;;;;;;;2.88;1.80;;;32.50;99.90;;;;;;5036943;28;20033;-86
2021/10/26 12:24:46;;;;;;;3.65;2.63;;;31.30;99.90;;;;;;5035571;28;20527;-85
2021/10/26 12:27:12;;;;;;;3.40;2.05;;;31.20;99.90;;;;;;5033906;28;20025;-85
2021/10/26 12:29:41;;;;;;;4.78;2.30;;;31.20;99.90;;;;;;5036181;28;20528;-87
2021/10/26 12:32:08;;;;;;;6.45;3.30;;;34.30;99.90;;;;;;5036831;28;20045;-86
2021/10/26 12:34:36;;;;;;;5.65;2.67;;;35.30;99.90;;;;;;5036978;28;20080;-85
2021/10/26 12:37:34;;;;;;;4.20;2.10;;;31.70;99.90;;;;;;5037083;28;20401;-89
2021/10/26 12:40:16;;;;;;;3.67;1.98;;;34.00;99.90;;;;;;5025238;28;20037;-86
2021/10/26 12:42:48;;;;;;;6.15;2.92;;;33.60;99.90;;;;;;5037584;28;20135;-87
2021/10/26 12:45:16;;;;;;;3.72;2.40;;;31.90;99.90;;;;;;5034019;28;20632;-86
2021/10/26 12:48:13;;;;;;;5.32;2.92;;;31.40;99.90;;;;;;5036741;28;20477;-83
2021/10/26 12:50:55;;;;;;;3.70;2.10;;;31.90;99.90;;;;;;5035287;28;20034;-83